Time;durP1;ratioP1;P1;durP2;ratioP2;P2;SDS_P1;SDS_P2;PMS_P1;PMS_P2;Temp;Humidity;BMP_temperature;BMP_pressure;BME280_temperature;BME280_humidity;BME280_pressure;Samples;Min_cycle;Max_cycle;Signal;HPM_P1;HPM_P2
2023/07/03 00:02:21;;;;;;;;;;;;;;;15.26;69.58;96257.00;4949060;29;19964;-74
2023/07/03 00:04:46;;;;;;;;;;;;;;;15.22;69.24;96254.88;4949214;29;19967;-74
2023/07/03 00:07:13;;;;;;;;;;;;;;;15.18;69.92;96253.78;4947494;29;19969;-75
2023/07/03 00:09:39;;;;;;;;;;;;;;;15.15;69.37;96245.53;4949033;29;19980;-74
2023/07/03 00:12:05;;;;;;;;;;;;;;;15.12;69.75;96257.41;4948920;29;20240;-73
2023/07/03 00:14:31;;;;;;;;;;;;;;;15.08;70.14;96258.19;4949001;29;19963;-73
2023/07/03 00:16:56;;;;;;;;;;;;;;;15.04;70.01;96260.50;4948946;29;19964;-74
2023/07/03 00:19:26;;;;;;;;;;;;;;;15.02;71.29;96265.25;4947448;29;19962;-75
2023/07/03 00:21:52;;;;;;;;;;;;;;;14.99;71.04;96263.09;4948866;29;19970;-73
2023/07/03 00:24:18;;;;;;;;;;;;;;;14.96;70.96;96267.03;4948761;29;19957;-70
2023/07/03 00:26:44;;;;;;;;;;;;;;;14.92;70.98;96262.50;4947556;29;20246;-70
2023/07/03 00:29:10;;;;;;;;;;;;;;;14.91;71.51;96266.19;4947543;29;19998;-70
2023/07/03 00:31:35;;;;;;;;;;;;;;;14.89;71.56;96265.63;4948398;29;19956;-70
2023/07/03 00:34:01;;;;;;;;;;;;;;;14.87;71.44;96257.19;4948574;29;19961;-71
2023/07/03 00:36:27;;;;;;;;;;;;;;;14.85;71.12;96265.34;4948397;29;19960;-70
2023/07/03 00:38:58;;;;;;;;;;;;;;;14.86;72.37;96274.06;4948667;29;19960;-73
2023/07/03 00:41:24;;;;;;;;;;;;;;;14.84;72.17;96266.38;4948192;29;19953;-73
2023/07/03 00:43:50;;;;;;;;;;;;;;;14.82;72.15;96266.66;4948438;29;20135;-73
2023/07/03 00:46:17;;;;;;;;;;;;;;;14.81;72.33;96262.41;4948403;29;19973;-73
2023/07/03 00:48:44;;;;;;;;;;;;;;;14.79;72.95;96261.06;4946806;29;19952;-73
2023/07/03 00:51:12;;;;;;;;;;;;;;;14.78;72.43;96259.47;4948321;29;19964;-72
2023/07/03 00:53:38;;;;;;;;;;;;;;;14.79;74.29;96258.44;4947309;29;19960;-73
2023/07/03 00:56:04;;;;;;;;;;;;;;;14.82;73.62;96265.84;4948303;29;19964;-74
2023/07/03 00:58:30;;;;;;;;;;;;;;;14.86;72.42;96258.22;4948122;29;19990;-70
2023/07/03 01:00:59;;;;;;;;;;;;;;;14.91;72.29;96258.25;4947911;29;19962;-72
2023/07/03 01:03:37;;;;;;;;;;;;;;;14.94;72.75;96249.84;4948241;29;19959;-71
2023/07/03 01:06:05;;;;;;;;;;;;;;;14.98;72.12;96256.22;4947967;29;19972;-72
2023/07/03 01:08:31;;;;;;;;;;;;;;;14.99;71.95;96253.34;4948058;29;19954;-72
2023/07/03 01:10:57;;;;;;;;;;;;;;;15.04;71.30;96251.81;4947395;29;19973;-72
2023/07/03 01:13:25;;;;;;;;;;;;;;;15.03;72.04;96250.97;4947863;29;19967;-74
2023/07/03 01:15:51;;;;;;;;;;;;;;;15.03;72.47;96253.63;4947883;29;19959;-71
2023/07/03 01:18:17;;;;;;;;;;;;;;;15.06;72.12;96250.50;4947820;29;19963;-71
2023/07/03 01:20:53;;;;;;;;;;;;;;;15.06;72.67;96250.50;4947959;29;20259;-71
2023/07/03 01:23:33;;;;;;;;;;;;;;;15.07;72.62;96249.44;4947897;29;19968;-71
2023/07/03 01:25:59;;;;;;;;;;;;;;;15.08;71.60;96245.75;4947581;29;19958;-71
2023/07/03 01:28:26;;;;;;;;;;;;;;;15.10;72.43;96248.13;4947687;29;19956;-71
2023/07/03 01:30:54;;;;;;;;;;;;;;;15.09;71.74;96247.34;4947081;29;19961;-70
2023/07/03 01:33:25;;;;;;;;;;;;;;;15.08;72.70;96248.41;4947569;29;20004;-72
2023/07/03 01:35:52;;;;;;;;;;;;;;;15.08;72.09;96245.75;4947747;29;19957;-74
2023/07/03 01:38:19;;;;;;;;;;;;;;;15.00;72.19;96252.28;4947106;29;19941;-76
2023/07/03 01:40:44;;;;;;;;;;;;;;;14.98;73.12;96253.59;4947273;29;20263;-76
2023/07/03 01:43:11;;;;;;;;;;;;;;;15.00;72.82;96244.38;4947503;29;19958;-76
2023/07/03 01:45:41;;;;;;;;;;;;;;;15.00;72.09;96239.09;4947043;29;20208;-76
2023/07/03 01:48:08;;;;;;;;;;;;;;;15.05;72.36;96240.19;4947088;29;19956;-76
2023/07/03 01:50:34;;;;;;;;;;;;;;;15.08;72.83;96244.97;4947252;29;19961;-77
2023/07/03 01:53:02;;;;;;;;;;;;;;;15.09;71.51;96242.06;4947052;29;19969;-75
2023/07/03 01:55:31;;;;;;;;;;;;;;;15.05;72.41;96246.25;4947188;29;19985;-72
2023/07/03 01:57:58;;;;;;;;;;;;;;;15.08;72.75;96245.75;4947239;29;19971;-72
2023/07/03 02:00:32;;;;;;;;;;;;;;;15.09;72.91;96244.69;4946741;29;19968;-72
2023/07/03 02:03:00;;;;;;;;;;;;;;;15.12;72.96;96244.22;4946103;29;19952;-72
2023/07/03 02:05:29;;;;;;;;;;;;;;;15.08;72.21;96235.19;4947129;29;20235;-72
2023/07/03 02:07:59;;;;;;;;;;;;;;;15.02;72.65;96238.84;4946350;29;19975;-72
2023/07/03 02:10:25;;;;;;;;;;;;;;;15.02;73.18;96236.19;4947148;29;20118;-77
2023/07/03 02:12:51;;;;;;;;;;;;;;;15.05;73.21;96240.97;4946758;29;20015;-77
2023/07/03 02:15:17;;;;;;;;;;;;;;;15.07;74.89;96248.66;4945722;29;19967;-76
2023/07/03 02:17:43;;;;;;;;;;;;;;;15.04;73.25;96236.75;4946812;29;19956;-75
2023/07/03 02:20:14;;;;;;;;;;;;;;;15.03;73.06;96235.13;4945740;29;19990;-74
2023/07/03 02:22:41;;;;;;;;;;;;;;;15.06;73.36;96245.22;4947031;29;19959;-75
2023/07/03 02:25:07;;;;;;;;;;;;;;;15.06;73.66;96245.22;4947036;29;19962;-74
2023/07/03 02:27:33;;;;;;;;;;;;;;;15.07;73.83;96238.06;4947674;29;19959;-71
2023/07/03 02:29:59;;;;;;;;;;;;;;;15.08;73.69;96239.69;4946430;29;19944;-72
2023/07/03 02:32:31;;;;;;;;;;;;;;;15.08;74.20;96237.03;4947172;29;20225;-71
2023/07/03 02:34:57;;;;;;;;;;;;;;;15.10;74.47;96243.66;4945324;29;20136;-71
2023/07/03 02:37:23;;;;;;;;;;;;;;;15.11;73.75;96239.16;4947065;29;19973;-71
2023/07/03 02:39:49;;;;;;;;;;;;;;;15.11;73.91;96242.59;4946672;29;19963;-71
2023/07/03 02:42:15;;;;;;;;;;;;;;;15.08;73.93;96237.03;4945408;29;20246;-70
2023/07/03 02:44:40;;;;;;;;;;;;;;;15.06;74.01;96239.16;4946596;29;19952;-71
2023/07/03 02:47:06;;;;;;;;;;;;;;;15.07;74.43;96240.72;4946916;29;20122;-71
2023/07/03 02:49:32;;;;;;;;;;;;;;;15.09;74.64;96236.00;4946786;29;19951;-70
2023/07/03 02:51:58;;;;;;;;;;;;;;;15.08;74.15;96232.56;4946755;29;19961;-70
2023/07/03 02:54:24;;;;;;;;;;;;;;;15.07;74.47;96238.88;4946723;29;19965;-71
2023/07/03 02:56:50;;;;;;;;;;;;;;;15.07;74.53;96244.16;4946707;29;19970;-71
2023/07/03 02:59:15;;;;;;;;;;;;;;;15.09;75.47;96236.00;4946922;29;20221;-71
2023/07/03 03:01:41;;;;;;;;;;;;;;;15.11;74.46;96239.16;4946832;29;20260;-70
2023/07/03 03:04:07;;;;;;;;;;;;;;;15.08;74.42;96235.19;4946591;29;20023;-71
2023/07/03 03:06:33;;;;;;;;;;;;;;;15.05;75.04;96235.69;4946705;29;20302;-72
2023/07/03 03:08:59;;;;;;;;;;;;;;;15.02;75.02;96229.06;4946311;29;19973;-71
2023/07/03 03:11:25;;;;;;;;;;;;;;;15.02;75.54;96239.63;4946338;29;19970;-70
2023/07/03 03:13:51;;;;;;;;;;;;;;;15.05;75.77;96233.03;4946568;29;19970;-70
2023/07/03 03:16:17;;;;;;;;;;;;;;;15.08;76.09;96239.69;4947844;29;19958;-70
2023/07/03 03:18:42;;;;;;;;;;;;;;;15.09;76.17;96236.78;4949497;29;20000;-71
2023/07/03 03:21:08;;;;;;;;;;;;;;;15.11;75.92;96241.81;4950019;29;20001;-71
2023/07/03 03:23:34;;;;;;;;;;;;;;;15.08;75.28;96229.91;4948601;29;20252;-70
2023/07/03 03:26:00;;;;;;;;;;;;;;;15.10;76.44;96237.56;4949885;29;20240;-68
2023/07/03 03:28:26;;;;;;;;;;;;;;;15.07;75.73;96238.88;4949783;29;19962;-71
2023/07/03 03:30:52;;;;;;;;;;;;;;;15.07;76.42;96241.50;4949713;29;19979;-71
2023/07/03 03:33:17;;;;;;;;;;;;;;;15.07;76.05;96232.78;4948694;29;19976;-71
2023/07/03 03:35:45;;;;;;;;;;;;;;;15.09;76.28;96236.78;4949555;29;19959;-71
2023/07/03 03:38:11;;;;;;;;;;;;;;;15.11;76.06;96237.31;4948146;29;20139;-71
2023/07/03 03:40:36;;;;;;;;;;;;;;;15.13;76.37;96240.50;4949605;29;20000;-71
2023/07/03 03:43:04;;;;;;;;;;;;;;;15.14;75.75;96241.28;4947974;29;19999;-70
2023/07/03 03:45:30;;;;;;;;;;;;;;;15.13;76.11;96242.34;4948959;29;19963;-71
2023/07/03 03:47:55;;;;;;;;;;;;;;;15.13;75.94;96237.88;4949309;29;20052;-70
2023/07/03 03:50:22;;;;;;;;;;;;;;;15.14;75.53;96236.84;4949231;29;20269;-71
2023/07/03 03:52:48;;;;;;;;;;;;;;;15.14;75.87;96231.56;4949303;29;20135;-70
2023/07/03 03:55:13;;;;;;;;;;;;;;;15.13;75.71;96229.94;4949418;29;19961;-70
2023/07/03 03:57:39;;;;;;;;;;;;;;;15.16;77.33;96236.56;4947896;29;19961;-71
2023/07/03 04:00:13;;;;;;;;;;;;;;;15.14;76.22;96234.19;4948484;29;19953;-70
2023/07/03 04:02:39;;;;;;;;;;;;;;;15.13;76.26;96231.78;4949386;29;19987;-70
2023/07/03 04:05:05;;;;;;;;;;;;;;;15.14;76.70;96233.38;4949315;29;19972;-75
2023/07/03 04:07:31;;;;;;;;;;;;;;;15.16;76.57;96237.38;4948959;29;19968;-75
2023/07/03 04:09:56;;;;;;;;;;;;;;;15.19;76.84;96244.00;4947430;29;19962;-76
2023/07/03 04:12:22;;;;;;;;;;;;;;;15.19;76.66;96244.78;4949157;29;19956;-77
2023/07/03 04:14:48;;;;;;;;;;;;;;;15.21;76.95;96247.19;4948358;29;19974;-77
2023/07/03 04:17:14;;;;;;;;;;;;;;;15.22;79.17;96248.75;4947722;29;19956;-77
2023/07/03 04:19:40;;;;;;;;;;;;;;;15.18;78.54;96245.84;4947417;29;20171;-70
2023/07/03 04:22:05;;;;;;;;;;;;;;;15.19;77.11;96239.50;4948248;29;19967;-70
2023/07/03 04:24:31;;;;;;;;;;;;;;;15.19;78.34;96249.28;4947361;29;20010;-71
2023/07/03 04:26:58;;;;;;;;;;;;;;;15.19;77.63;96251.91;4947889;29;19966;-71
2023/07/03 04:29:24;;;;;;;;;;;;;;;15.17;77.33;96252.16;4947707;29;19969;-72
2023/07/03 04:31:50;;;;;;;;;;;;;;;15.20;77.63;96250.84;4948664;29;19961;-71
2023/07/03 04:34:16;;;;;;;;;;;;;;;15.20;77.49;96254.31;4948627;29;19969;-71
2023/07/03 04:36:42;;;;;;;;;;;;;;;15.25;78.24;96258.06;4948238;29;19956;-71
2023/07/03 04:39:08;;;;;;;;;;;;;;;15.28;78.50;96263.59;4948223;29;19957;-74
2023/07/03 04:41:33;;;;;;;;;;;;;;;15.28;77.69;96254.91;4948526;29;20010;-71
2023/07/03 04:44:00;;;;;;;;;;;;;;;15.25;77.31;96255.41;4948245;29;19967;-70
2023/07/03 04:46:26;;;;;;;;;;;;;;;15.30;77.74;96260.72;4947849;29;19963;-70
2023/07/03 04:48:53;;;;;;;;;;;;;;;15.34;78.42;96253.88;4948322;29;19958;-71
2023/07/03 04:51:20;;;;;;;;;;;;;;;15.40;77.90;96258.16;4948250;29;19954;-70
2023/07/03 04:53:47;;;;;;;;;;;;;;;15.42;77.02;96251.56;4948086;29;19978;-70
2023/07/03 04:56:12;;;;;;;;;;;;;;;15.47;78.11;96258.72;4947446;29;19984;-71
2023/07/03 04:58:38;;;;;;;;;;;;;;;15.47;76.76;96245.53;4948290;29;20244;-73
2023/07/03 05:01:04;;;;;;;;;;;;;;;15.50;77.84;96254.81;4947811;29;19958;-74
2023/07/03 05:03:32;;;;;;;;;;;;;;;15.51;76.88;96245.81;4947883;29;19962;-74
2023/07/03 05:05:58;;;;;;;;;;;;;;;15.56;76.87;96249.31;4947609;29;20256;-73
2023/07/03 05:08:24;;;;;;;;;;;;;;;15.61;76.38;96246.69;4947759;29;20242;-73
2023/07/03 05:10:54;;;;;;;;;;;;;;;15.68;76.10;96243.03;4946757;29;20156;-73
2023/07/03 05:13:19;;;;;;;;;;;;;;;15.74;75.82;96249.97;4946428;29;20155;-71
2023/07/03 05:15:45;;;;;;;;;;;;;;;15.77;75.92;96246.78;4946288;29;19971;-72
2023/07/03 05:18:11;;;;;;;;;;;;;;;15.83;77.82;96267.75;4947950;29;19955;-75
2023/07/03 05:20:37;;;;;;;;;;;;;;;15.91;75.66;96255.88;4947743;29;19959;-75
2023/07/03 05:23:03;;;;;;;;;;;;;;;15.95;76.10;96264.09;4947760;29;19955;-75
2023/07/03 05:25:29;;;;;;;;;;;;;;;15.98;76.42;96261.75;4947676;29;19964;-74
2023/07/03 05:27:54;;;;;;;;;;;;;;;16.03;76.90;96266.25;4946522;29;20266;-75
2023/07/03 05:30:20;;;;;;;;;;;;;;;16.06;75.97;96262.28;4947598;29;19957;-74
2023/07/03 05:32:46;;;;;;;;;;;;;;;16.07;75.61;96262.06;4946404;29;20002;-71
2023/07/03 05:35:13;;;;;;;;;;;;;;;16.10;75.26;96273.97;4947528;29;19967;-76
2023/07/03 05:37:39;;;;;;;;;;;;;;;16.12;75.67;96266.56;4947202;29;19967;-74
2023/07/03 05:40:06;;;;;;;;;;;;;;;16.15;75.96;96272.16;4946627;29;19952;-76
2023/07/03 05:42:32;;;;;;;;;;;;;;;16.20;75.84;96272.16;4947229;29;19963;-76
2023/07/03 05:44:58;;;;;;;;;;;;;;;16.29;76.46;96274.31;4947246;29;19966;-75
2023/07/03 05:47:24;;;;;;;;;;;;;;;16.37;75.72;96271.16;4947444;29;20012;-77
2023/07/03 05:49:52;;;;;;;;;;;;;;;16.47;75.37;96273.84;4947526;29;19956;-77
2023/07/03 05:52:18;;;;;;;;;;;;;;;16.71;75.21;96268.88;4947356;29;20031;-71
2023/07/03 05:54:44;;;;;;;;;;;;;;;16.95;74.49;96255.22;4929602;29;20026;-73
2023/07/03 05:57:10;;;;;;;;;;;;;;;17.29;72.53;96249.41;4947589;29;19974;-72
2023/07/03 05:59:37;;;;;;;;;;;;;;;17.64;71.00;96240.63;4947227;29;19953;-72
2023/07/03 06:02:05;;;;;;;;;;;;;;;18.02;69.83;96235.81;4947361;29;19963;-72
2023/07/03 06:04:33;;;;;;;;;;;;;;;18.40;68.49;96231.66;4946891;29;19973;-72
2023/07/03 06:06:59;;;;;;;;;;;;;;;18.75;67.29;96231.72;4947161;29;19956;-72
2023/07/03 06:09:27;;;;;;;;;;;;;;;19.02;65.03;96210.88;4947248;29;19966;-71
2023/07/03 06:11:53;;;;;;;;;;;;;;;19.13;64.94;96222.22;4945571;29;19965;-72
2023/07/03 06:14:19;;;;;;;;;;;;;;;19.11;63.76;96219.03;4946876;29;19968;-71
2023/07/03 06:16:46;;;;;;;;;;;;;;;19.10;63.42;96216.66;4947048;29;20149;-72
2023/07/03 06:19:12;;;;;;;;;;;;;;;18.94;65.01;96238.03;4946983;29;19958;-72
2023/07/03 06:21:38;;;;;;;;;;;;;;;18.79;65.37;96238.94;4947186;29;19961;-71
2023/07/03 06:24:08;;;;;;;;;;;;;;;18.65;64.88;96238.69;4946310;29;19952;-71
2023/07/03 06:26:34;;;;;;;;;;;;;;;18.66;65.02;96240.28;4947235;29;19968;-71
2023/07/03 06:29:01;;;;;;;;;;;;;;;18.93;64.60;96235.66;4946541;29;19965;-71
2023/07/03 06:31:28;;;;;;;;;;;;;;;19.11;63.93;96219.03;4946721;29;20250;-72
2023/07/03 06:33:54;;;;;;;;;;;;;;;19.05;63.87;96239.53;4946523;29;19975;-71
2023/07/03 06:36:24;;;;;;;;;;;;;;;18.89;63.92;96238.06;4946667;29;19960;-72
2023/07/03 06:38:53;;;;;;;;;;;;;;;18.72;63.71;96242.91;4946672;29;20140;-71
2023/07/03 06:41:19;;;;;;;;;;;;;;;18.86;64.41;96244.72;4946838;29;19950;-72
2023/07/03 06:43:46;;;;;;;;;;;;;;;19.22;64.66;96241.81;4946674;29;20264;-72
2023/07/03 06:46:12;;;;;;;;;;;;;;;19.72;64.02;96238.19;4946882;29;19968;-71
2023/07/03 06:48:38;;;;;;;;;;;;;;;19.95;61.27;96226.81;4945415;29;20022;-71
2023/07/03 06:51:08;;;;;;;;;;;;;;;19.94;61.84;96227.06;4947519;29;19989;-71
2023/07/03 06:53:34;;;;;;;;;;;;;;;19.80;61.49;96232.25;4950237;29;19970;-71
2023/07/03 06:56:00;;;;;;;;;;;;;;;19.64;61.78;96224.41;4949967;29;19959;-71
2023/07/03 06:58:27;;;;;;;;;;;;;;;19.52;61.21;96226.66;4950244;29;19958;-71
2023/07/03 07:00:53;;;;;;;;;;;;;;;19.40;62.17;96234.22;4950290;29;20128;-71
2023/07/03 07:03:19;;;;;;;;;;;;;;;19.26;62.12;96236.75;4950066;29;19962;-71
2023/07/03 07:05:46;;;;;;;;;;;;;;;19.14;63.65;96252.25;4950050;29;19996;-71
2023/07/03 07:08:18;;;;;;;;;;;;;;;19.09;63.24;96252.25;4950331;29;19961;-76
2023/07/03 07:10:44;;;;;;;;;;;;;;;19.07;64.20;96260.53;4948994;29;20258;-76
2023/07/03 07:13:11;;;;;;;;;;;;;;;19.04;65.13;96261.06;4949671;29;19966;-77
2023/07/03 07:15:37;;;;;;;;;;;;;;;19.02;64.21;96256.06;4950087;29;20126;-76
2023/07/03 07:18:05;;;;;;;;;;;;;;;19.01;65.16;96259.75;4950263;29;19949;-76
2023/07/03 07:20:35;;;;;;;;;;;;;;;19.04;66.53;96266.38;4949961;29;19964;-76
2023/07/03 07:23:01;;;;;;;;;;;;;;;19.05;66.03;96262.69;4950081;29;19953;-71
2023/07/03 07:25:27;;;;;;;;;;;;;;;19.09;63.97;96254.91;4949857;29;19965;-71
2023/07/03 07:27:53;;;;;;;;;;;;;;;19.12;60.79;96228.59;4948388;29;19961;-71
2023/07/03 07:30:19;;;;;;;;;;;;;;;19.15;58.26;96227.22;4949696;29;19962;-71
2023/07/03 07:32:49;;;;;;;;;;;;;;;19.16;59.79;96242.13;4949561;29;19959;-71
2023/07/03 07:35:15;;;;;;;;;;;;;;;19.18;58.97;96229.34;4949465;29;20020;-71
2023/07/03 07:37:41;;;;;;;;;;;;;;;19.18;58.29;96229.34;4949750;29;19961;-71
2023/07/03 07:40:08;;;;;;;;;;;;;;;19.21;59.22;96239.41;4949712;29;19963;-71
2023/07/03 07:42:34;;;;;;;;;;;;;;;19.27;60.43;96249.72;4949595;29;19958;-71
2023/07/03 07:45:00;;;;;;;;;;;;;;;19.39;59.49;96238.75;4949493;29;19966;-72
2023/07/03 07:47:26;;;;;;;;;;;;;;;19.43;58.05;96228.34;4949536;29;20022;-71
2023/07/03 07:49:51;;;;;;;;;;;;;;;19.40;57.81;96235.03;4949081;29;19952;-71
2023/07/03 07:52:17;;;;;;;;;;;;;;;19.59;59.27;96239.63;4949489;29;19963;-71
2023/07/03 07:54:43;;;;;;;;;;;;;;;19.89;58.24;96240.44;4949295;29;19968;-72
2023/07/03 07:57:09;;;;;;;;;;;;;;;19.93;56.63;96233.47;4949167;29;20280;-71
2023/07/03 07:59:35;;;;;;;;;;;;;;;19.86;55.56;96223.16;4947860;29;19961;-71
2023/07/03 08:02:01;;;;;;;;;;;;;;;19.79;56.86;96246.66;4948499;29;19963;-71
2023/07/03 08:04:27;;;;;;;;;;;;;;;19.66;57.40;96250.75;4949169;29;20236;-72
2023/07/03 08:06:53;;;;;;;;;;;;;;;19.57;57.18;96252.41;4949041;29;19999;-70
2023/07/03 08:09:21;;;;;;;;;;;;;;;19.52;56.84;96252.47;4949262;29;20144;-70
2023/07/03 08:11:47;;;;;;;;;;;;;;;19.50;58.42;96255.41;4949099;29;19971;-70
2023/07/03 08:14:12;;;;;;;;;;;;;;;19.59;58.45;96256.41;4948956;29;20148;-72
2023/07/03 08:16:38;;;;;;;;;;;;;;;19.73;56.37;96248.56;4949069;29;19950;-71
2023/07/03 08:19:05;;;;;;;;;;;;;;;19.82;55.59;96260.19;4949002;29;19994;-71
2023/07/03 08:21:31;;;;;;;;;;;;;;;20.06;55.21;96238.13;4948665;29;19964;-72
2023/07/03 08:23:57;;;;;;;;;;;;;;;20.36;53.10;96241.50;4948436;29;19960;-72
2023/07/03 08:26:23;;;;;;;;;;;;;;;20.65;53.25;96239.53;4947315;29;19960;-71
2023/07/03 08:28:49;;;;;;;;;;;;;;;20.79;51.52;96244.97;4948443;29;19967;-72
2023/07/03 08:31:15;;;;;;;;;;;;;;;20.79;50.52;96242.31;4948399;29;20004;-72
2023/07/03 08:33:41;;;;;;;;;;;;;;;20.63;50.47;96243.59;4948705;29;19994;-72
2023/07/03 08:36:07;;;;;;;;;;;;;;;20.53;50.56;96246.34;4948706;29;19966;-73
2023/07/03 08:38:33;;;;;;;;;;;;;;;20.47;52.53;96258.94;4948428;29;19982;-71
2023/07/03 08:40:59;;;;;;;;;;;;;;;20.44;52.08;96249.66;4931351;29;19966;-77
2023/07/03 08:43:37;;;;;;;;;;;;;;;20.48;51.96;96256.00;4947847;29;20043;-78
2023/07/03 08:46:07;;;;;;;;;;;;;;;20.54;50.34;96258.59;4948429;29;19964;-77
2023/07/03 08:48:34;;;;;;;;;;;;;;;20.71;49.94;96256.25;4948636;29;19956;-77
2023/07/03 08:51:02;;;;;;;;;;;;;;;21.09;49.24;96243.72;4948260;29;19961;-78
2023/07/03 08:53:34;;;;;;;;;;;;;;;21.44;48.41;96248.78;4930901;29;19960;-77
2023/07/03 08:56:07;;;;;;;;;;;;;;;21.67;46.90;96247.06;4948154;29;19971;-77
2023/07/03 08:58:33;;;;;;;;;;;;;;;21.90;45.37;96248.00;4946745;29;19970;-78
2023/07/03 09:01:18;;;;;;;;;;;;;;;22.13;46.10;96261.47;4931053;29;20008;-77
2023/07/03 09:03:52;;;;;;;;;;;;;;;22.37;45.26;96253.28;4946688;29;20118;-78
2023/07/03 09:06:28;;;;;;;;;;;;;;;22.38;45.18;96269.00;4948285;29;19979;-77
2023/07/03 09:09:01;;;;;;;;;;;;;;;22.15;47.72;96275.31;4946810;29;19984;-78
2023/07/03 09:11:32;;;;;;;;;;;;;;;21.86;46.41;96268.38;4945713;29;20264;-77
2023/07/03 09:14:00;;;;;;;;;;;;;;;21.84;46.08;96278.56;4947138;29;19974;-71
2023/07/03 09:16:26;;;;;;;;;;;;;;;22.00;45.77;96273.72;4947701;29;20235;-71
2023/07/03 09:18:55;;;;;;;;;;;;;;;22.23;47.00;96274.66;4947929;29;20011;-71
2023/07/03 09:21:21;;;;;;;;;;;;;;;22.34;44.91;96264.56;4947838;29;19972;-72
2023/07/03 09:23:51;;;;;;;;;;;;;;;22.49;44.80;96282.97;4947739;29;19965;-71
2023/07/03 09:26:24;;;;;;;;;;;;;;;22.53;45.27;96275.13;4947590;29;19965;-72
2023/07/03 09:28:51;;;;;;;;;;;;;;;22.49;44.16;96288.31;4947868;29;19964;-72
2023/07/03 09:31:17;;;;;;;;;;;;;;;22.31;44.05;96281.19;4947408;29;19958;-78
2023/07/03 09:33:43;;;;;;;;;;;;;;;22.14;44.26;96290.56;4930559;29;20188;-70
2023/07/03 09:36:20;;;;;;;;;;;;;;;22.11;43.87;96288.47;4947606;29;19998;-70
2023/07/03 09:38:45;;;;;;;;;;;;;;;22.20;43.87;96276.00;4947406;29;19973;-71
2023/07/03 09:41:12;;;;;;;;;;;;;;;22.35;44.62;96282.19;4947414;29;19958;-71
2023/07/03 09:43:43;;;;;;;;;;;;;;;22.35;43.42;96280.28;4947352;29;19959;-70
2023/07/03 09:46:13;;;;;;;;;;;;;;;22.24;45.71;96290.41;4947296;29;20140;-71
2023/07/03 09:48:39;;;;;;;;;;;;;;;22.15;45.06;96286.00;4947384;29;19967;-71
2023/07/03 09:51:25;;;;;;;;;;;;;;;22.28;45.06;96299.41;4946812;29;19945;-72
2023/07/03 09:53:52;;;;;;;;;;;;;;;22.53;44.24;96283.16;4946677;29;19962;-72
2023/07/03 09:56:21;;;;;;;;;;;;;;;22.69;43.32;96290.56;4946041;29;20145;-71
2023/07/03 09:58:51;;;;;;;;;;;;;;;22.72;42.51;96291.84;4946151;29;19956;-72
2023/07/03 10:01:21;;;;;;;;;;;;;;;22.59;42.03;96288.09;4945907;29;19953;-70
2023/07/03 10:03:47;;;;;;;;;;;;;;;22.71;42.69;96290.25;4945862;29;19966;-71
2023/07/03 10:06:14;;;;;;;;;;;;;;;22.85;42.97;96293.72;4947157;29;20023;-71
2023/07/03 10:08:41;;;;;;;;;;;;;;;22.69;42.60;96297.78;4947134;29;19961;-71
2023/07/03 10:11:08;;;;;;;;;;;;;;;22.51;42.87;96304.84;4947107;29;19962;-77
2023/07/03 10:13:40;;;;;;;;;;;;;;;22.26;41.11;96306.13;4945498;29;20164;-78
2023/07/03 10:16:07;;;;;;;;;;;;;;;22.09;43.04;96298.69;4947253;29;19978;-78
2023/07/03 10:18:35;;;;;;;;;;;;;;;22.18;42.40;96304.13;4945945;29;19965;-79
2023/07/03 10:21:03;;;;;;;;;;;;;;;22.52;42.55;96298.41;4929998;29;19973;-80
2023/07/03 10:23:30;;;;;;;;;;;;;;;22.56;42.25;96306.63;4930007;29;20292;-79
2023/07/03 10:26:04;;;;;;;;;;;;;;;22.53;41.49;96288.50;4948241;29;19975;-80
2023/07/03 10:28:59;;;;;;;;;;;;;;;22.36;41.72;96303.25;4949700;29;19966;-72
2023/07/03 10:31:32;;;;;;;;;;;;;;;22.49;41.55;96299.78;4941690;29;20158;-78
2023/07/03 10:34:01;;;;;;;;;;;;;;;22.63;43.33;96315.81;4949914;29;19950;-80
2023/07/03 10:36:28;;;;;;;;;;;;;;;22.65;42.72;96310.16;4934014;29;19961;-81
2023/07/03 10:39:05;;;;;;;;;;;;;;;22.65;43.26;96308.28;4949746;29;19975;-79
2023/07/03 10:41:35;;;;;;;;;;;;;;;22.73;42.94;96311.34;4949387;29;19967;-80
2023/07/03 10:44:06;;;;;;;;;;;;;;;22.65;41.34;96310.94;4949147;29;19956;-81
2023/07/03 10:46:38;;;;;;;;;;;;;;;22.56;42.81;96307.41;4933674;29;20255;-79
2023/07/03 10:49:06;;;;;;;;;;;;;;;22.42;44.04;96322.66;4949338;29;19965;-72
2023/07/03 10:51:54;;;;;;;;;;;;;;;22.33;44.16;96325.22;4950500;29;19967;-73
2023/07/03 10:54:30;;;;;;;;;;;;;;;22.27;44.28;96327.19;4930947;29;19978;-72
2023/07/03 10:56:58;;;;;;;;;;;;;;;22.27;43.74;96318.38;4950239;29;19951;-72
2023/07/03 10:59:29;;;;;;;;;;;;;;;22.52;43.69;96317.09;4950082;29;20022;-72
2023/07/03 11:01:58;;;;;;;;;;;;;;;22.88;41.68;96308.34;4948855;29;20249;-72
2023/07/03 11:04:27;;;;;;;;;;;;;;;23.17;41.68;96308.00;4949981;29;19960;-71
2023/07/03 11:07:08;;;;;;;;;;;;;;;23.19;40.86;96313.84;4933064;29;19960;-72
2023/07/03 11:09:40;;;;;;;;;;;;;;;23.05;42.12;96308.53;4950331;29;19958;-73
2023/07/03 11:12:11;;;;;;;;;;;;;;;23.28;42.13;96314.69;4950049;29;19953;-72
2023/07/03 11:14:58;;;;;;;;;;;;;;;23.32;41.43;96316.78;4950299;29;20264;-72
2023/07/03 11:17:29;;;;;;;;;;;;;;;23.26;41.87;96319.56;4950228;29;19959;-71
2023/07/03 11:20:12;;;;;;;;;;;;;;;23.23;43.01;96320.19;4949822;29;19966;-71
2023/07/03 11:22:42;;;;;;;;;;;;;;;23.13;40.55;96316.94;4949908;29;19953;-72
2023/07/03 11:25:24;;;;;;;;;;;;;;;22.93;42.39;96321.63;4949801;29;19962;-81
2023/07/03 11:27:50;;;;;;;;;;;;;;;22.72;43.18;96323.13;4947677;29;19959;-81
2023/07/03 11:30:16;;;;;;;;;;;;;;;22.66;43.44;96323.25;4949609;29;19992;-80
2023/07/03 11:32:43;;;;;;;;;;;;;;;22.85;43.86;96325.00;4948730;29;19960;-80
2023/07/03 11:35:12;;;;;;;;;;;;;;;22.96;43.30;96317.56;4932848;29;19980;-81
2023/07/03 11:37:44;;;;;;;;;;;;;;;22.99;43.82;96324.97;4947680;29;19969;-79
2023/07/03 11:40:22;;;;;;;;;;;;;;;23.17;44.43;96331.31;4949358;29;19964;-71
2023/07/03 11:42:48;;;;;;;;;;;;;;;23.28;43.46;96322.72;4949619;29;19958;-79
2023/07/03 11:45:34;;;;;;;;;;;;;;;23.40;42.63;96322.19;4949518;29;20026;-72
2023/07/03 11:48:00;;;;;;;;;;;;;;;23.66;43.32;96318.91;4947873;29;20137;-72
2023/07/03 11:50:29;;;;;;;;;;;;;;;23.76;42.08;96323.25;4948102;29;19946;-72
2023/07/03 11:52:55;;;;;;;;;;;;;;;23.74;42.44;96312.03;4949576;29;19966;-72
2023/07/03 11:55:33;;;;;;;;;;;;;;;23.99;43.00;96311.41;4932519;29;19971;-72
2023/07/03 11:57:59;;;;;;;;;;;;;;;24.26;41.57;96296.25;4948248;29;19961;-79
2023/07/03 12:00:29;;;;;;;;;;;;;;;24.19;42.00;96307.44;4932086;29;19973;-73
2023/07/03 12:02:56;;;;;;;;;;;;;;;23.99;41.07;96311.41;4949429;29;19958;-79
2023/07/03 12:05:41;;;;;;;;;;;;;;;24.16;42.70;96304.56;4947963;29;19976;-79
2023/07/03 12:08:30;;;;;;;;;;;;;;;24.24;41.67;96307.28;4947887;29;19959;-80
2023/07/03 12:10:58;;;;;;;;;;;;;;;24.18;40.66;96315.78;4940618;29;19985;-79
2023/07/03 12:13:28;;;;;;;;;;;;;;;24.27;41.08;96311.22;4947400;29;20026;-78
2023/07/03 12:15:55;;;;;;;;;;;;;;;24.51;39.78;96305.53;4948682;29;20155;-78
2023/07/03 12:18:21;;;;;;;;;;;;;;;24.69;40.99;96307.16;4931709;29;20129;-78
2023/07/03 12:20:47;;;;;;;;;;;;;;;24.81;40.12;96306.53;4947875;29;20253;-73
2023/07/03 12:23:29;;;;;;;;;;;;;;;24.99;41.27;96314.59;4949019;29;19966;-72
2023/07/03 12:26:02;;;;;;;;;;;;;;;25.22;39.52;96308.03;4947636;29;19964;-72
2023/07/03 12:28:28;;;;;;;;;;;;;;;25.39;38.84;96314.47;4947493;29;20003;-72
2023/07/03 12:31:08;;;;;;;;;;;;;;;25.45;38.65;96314.03;4948283;29;19940;-72
2023/07/03 12:33:33;;;;;;;;;;;;;;;25.41;37.29;96302.34;4948771;29;19962;-71
2023/07/03 12:35:59;;;;;;;;;;;;;;;24.93;37.18;96300.56;4948798;29;19960;-72
2023/07/03 12:38:25;;;;;;;;;;;;;;;24.52;37.97;96305.19;4947225;29;19960;-72
2023/07/03 12:40:51;;;;;;;;;;;;;;;24.33;40.21;96310.00;4947493;29;19956;-72
2023/07/03 12:43:18;;;;;;;;;;;;;;;24.19;40.76;96315.47;4948282;29;19966;-73
2023/07/03 12:45:50;;;;;;;;;;;;;;;24.22;41.51;96309.47;4948325;29;19958;-73
2023/07/03 12:48:20;;;;;;;;;;;;;;;24.53;40.83;96306.00;4948470;29;20234;-72
2023/07/03 12:50:51;;;;;;;;;;;;;;;24.55;40.63;96319.88;4948355;29;19960;-73
2023/07/03 12:53:18;;;;;;;;;;;;;;;24.36;40.92;96327.34;4948400;29;20123;-81